createdAt,value
2022-08-14T00:01:15.445Z,100396.30
2022-08-14T00:03:55.892Z,100398.73
2022-08-14T00:06:29.271Z,100398.91
2022-08-14T00:09:01.935Z,100395.71
2022-08-14T00:11:34.266Z,100394.47
2022-08-14T00:14:06.858Z,100386.55
2022-08-14T00:16:40.975Z,100388.83
2022-08-14T00:19:19.325Z,100390.45
2022-08-14T00:21:53.356Z,100385.06
2022-08-14T00:24:28.873Z,100379.23
2022-08-14T00:27:04.431Z,100377.93
2022-08-14T00:29:40.341Z,100380.89
2022-08-14T00:32:51.947Z,100376.23
2022-08-14T00:35:07.229Z,100377.22
2022-08-14T00:37:47.004Z,100378.14
2022-08-14T00:40:33.334Z,100378.66
2022-08-14T00:43:08.015Z,100373.92
2022-08-14T00:45:41.100Z,100368.26
2022-08-14T00:48:14.355Z,100363.67
2022-08-14T00:51:07.680Z,100362.23
2022-08-14T00:53:42.924Z,100360.85
2022-08-14T00:56:15.862Z,100358.09
2022-08-14T00:58:48.712Z,100355.58
2022-08-14T01:01:21.067Z,100356.52
2022-08-14T01:03:56.280Z,100356.66
2022-08-14T01:06:30.087Z,100357.05
2022-08-14T01:09:07.983Z,100358.00
2022-08-14T01:11:45.204Z,100360.30
2022-08-14T01:14:35.752Z,100359.45
2022-08-14T01:17:08.993Z,100362.93
2022-08-14T01:19:59.383Z,100364.71
2022-08-14T01:22:31.814Z,100362.27
2022-08-14T01:25:02.496Z,100358.13
2022-08-14T01:27:45.190Z,100354.30
2022-08-14T01:30:28.582Z,100350.31
2022-08-14T01:33:02.411Z,100349.80
2022-08-14T01:36:05.075Z,100348.22
2022-08-14T01:38:28.281Z,100351.02
2022-08-14T01:41:01.875Z,100351.89
2022-08-14T01:43:56.408Z,100352.56
2022-08-14T01:46:33.474Z,100352.33
2022-08-14T01:49:11.390Z,100352.45
2022-08-14T01:51:46.192Z,100347.83
2022-08-14T01:54:22.161Z,100348.68
2022-08-14T01:56:56.990Z,100344.27
2022-08-14T01:59:38.004Z,100352.16
2022-08-14T02:02:19.008Z,100353.36
2022-08-14T02:04:56.882Z,100359.29
2022-08-14T02:07:44.830Z,100352.89
2022-08-14T02:10:29.156Z,100351.23
2022-08-14T02:13:08.557Z,100344.80
2022-08-14T02:15:43.869Z,100345.84
2022-08-14T02:18:15.840Z,100351.55
2022-08-14T02:20:48.754Z,100347.52
2022-08-14T02:23:28.841Z,100347.60
2022-08-14T02:26:29.154Z,100342.98
2022-08-14T02:29:04.206Z,100341.20
2022-08-14T02:31:44.169Z,100337.30
2022-08-14T02:34:26.127Z,100336.16
2022-08-14T02:37:06.649Z,100329.39
2022-08-14T02:39:42.407Z,100324.66
2022-08-14T02:42:16.864Z,100328.94
2022-08-14T02:44:55.659Z,100328.73
2022-08-14T02:47:28.371Z,100326.75
2022-08-14T02:50:01.118Z,100327.84
2022-08-14T02:52:57.656Z,100322.58
2022-08-14T02:55:27.782Z,100322.08
2022-08-14T02:58:03.533Z,100322.73
2022-08-14T03:00:40.086Z,100321.74
2022-08-14T03:03:12.879Z,100327.23
2022-08-14T03:05:45.112Z,100328.10
2022-08-14T03:08:18.951Z,100323.38
2022-08-14T03:10:51.632Z,100323.40
2022-08-14T03:13:24.257Z,100324.14
2022-08-14T03:15:58.409Z,100327.27
2022-08-14T03:18:32.816Z,100328.85
2022-08-14T03:21:07.843Z,100328.70
2022-08-14T03:23:40.440Z,100329.39
2022-08-14T03:26:18.320Z,100328.51
2022-08-14T03:28:52.643Z,100331.77
2022-08-14T03:31:26.107Z,100330.69
2022-08-14T03:34:00.640Z,100329.13
2022-08-14T03:37:38.050Z,100328.96
2022-08-14T03:39:24.481Z,100324.20
2022-08-14T03:42:01.901Z,100320.61
2022-08-14T03:45:26.684Z,100309.84
2022-08-14T03:47:46.095Z,100306.10
2022-08-14T03:50:20.814Z,100302.47
2022-08-14T03:53:00.463Z,100303.80
2022-08-14T03:55:33.231Z,100300.45
2022-08-14T03:58:06.806Z,100299.71
2022-08-14T04:00:44.792Z,100294.23
2022-08-14T04:03:24.108Z,100298.13
2022-08-14T04:05:56.829Z,100300.55
2022-08-14T04:08:31.747Z,100300.52
2022-08-14T04:11:08.056Z,100301.05
2022-08-14T04:13:44.733Z,100298.15
2022-08-14T04:16:20.666Z,100298.49
2022-08-14T04:18:55.983Z,100298.09
2022-08-14T04:21:29.559Z,100293.08
2022-08-14T04:24:13.986Z,100299.52
2022-08-14T04:26:50.252Z,100298.41
2022-08-14T04:29:22.282Z,100295.64
2022-08-14T04:32:58.174Z,100290.55
2022-08-14T04:34:52.244Z,100288.01
2022-08-14T04:37:45.225Z,100290.85
2022-08-14T04:40:35.441Z,100288.70
2022-08-14T04:43:38.337Z,100286.14
2022-08-14T04:46:56.913Z,100287.16
2022-08-14T04:49:07.956Z,100289.20
2022-08-14T04:51:55.503Z,100285.05
2022-08-14T04:54:29.190Z,100281.17
2022-08-14T04:57:01.187Z,100285.82
2022-08-14T04:59:35.397Z,100287.80
2022-08-14T05:02:08.239Z,100289.88
2022-08-14T05:04:45.021Z,100296.75
2022-08-14T05:07:17.614Z,100288.61
2022-08-14T05:09:49.938Z,100287.50
2022-08-14T05:13:10.683Z,100289.06
2022-08-14T05:15:15.494Z,100291.75
2022-08-14T05:17:53.982Z,100289.21
2022-08-14T05:21:55.938Z,100283.82
2022-08-14T05:23:29.398Z,100281.86
2022-08-14T05:26:05.745Z,100276.63
2022-08-14T05:28:38.393Z,100280.52
2022-08-14T05:31:10.198Z,100278.50
2022-08-14T05:33:44.555Z,100281.51
2022-08-14T05:36:30.271Z,100287.89
2022-08-14T05:39:03.058Z,100289.86
2022-08-14T05:41:48.531Z,100288.02
2022-08-14T05:44:29.939Z,100279.81
2022-08-14T05:47:03.010Z,100278.10
2022-08-14T05:49:35.922Z,100279.04
2022-08-14T05:52:10.492Z,100280.06
2022-08-14T05:54:47.867Z,100277.80
2022-08-14T05:57:19.911Z,100274.23
2022-08-14T05:59:51.887Z,100276.05
2022-08-14T06:02:25.177Z,100269.95
2022-08-14T06:04:58.856Z,100269.71
2022-08-14T06:07:31.013Z,100265.56
2022-08-14T06:10:04.156Z,100254.95
2022-08-14T06:12:55.612Z,100257.45
2022-08-14T06:15:30.378Z,100252.55
2022-08-14T06:18:02.977Z,100250.95
2022-08-14T06:20:35.464Z,100252.27
2022-08-14T06:23:08.095Z,100253.91
2022-08-14T06:25:41.339Z,100251.73
2022-08-14T06:28:27.016Z,100246.04
2022-08-14T06:30:59.629Z,100250.67
2022-08-14T06:35:01.383Z,100248.27
2022-08-14T06:36:24.036Z,100243.31
2022-08-14T06:38:56.818Z,100243.84
2022-08-14T06:41:56.893Z,100240.28
2022-08-14T06:44:21.615Z,100243.08
2022-08-14T06:47:04.475Z,100245.51
2022-08-14T06:49:45.127Z,100239.36
2022-08-14T06:52:23.101Z,100239.64
2022-08-14T06:54:57.126Z,100240.00
2022-08-14T06:57:38.906Z,100247.62
2022-08-14T07:00:27.301Z,100243.92
2022-08-14T07:03:21.967Z,100245.67
2022-08-14T07:05:55.301Z,100247.94
2022-08-14T07:08:31.539Z,100244.30
2022-08-14T07:11:04.573Z,100241.18
2022-08-14T07:13:37.220Z,100242.89
2022-08-14T07:16:13.614Z,100240.27
2022-08-14T07:18:46.190Z,100237.37
2022-08-14T07:21:22.977Z,100237.02
2022-08-14T07:23:55.592Z,100235.77
2022-08-14T07:26:31.551Z,100229.70
2022-08-14T07:29:01.909Z,100226.54
2022-08-14T07:31:34.559Z,100221.18
2022-08-14T07:34:08.389Z,100221.63
2022-08-14T07:36:53.657Z,100223.83
2022-08-14T07:39:34.569Z,100227.46
2022-08-14T07:42:09.123Z,100235.16
2022-08-14T07:44:46.263Z,100235.48
2022-08-14T07:47:22.862Z,100236.42
2022-08-14T07:49:55.779Z,100236.27
2022-08-14T07:52:30.693Z,100235.36
2022-08-14T07:55:04.939Z,100234.33
2022-08-14T07:57:38.376Z,100230.23
2022-08-14T08:00:31.079Z,100225.77
2022-08-14T08:03:04.689Z,100217.35
2022-08-14T08:05:41.180Z,100219.48
2022-08-14T08:08:26.911Z,100218.27
2022-08-14T08:11:08.444Z,100209.38
2022-08-14T08:13:54.405Z,100214.12
2022-08-14T08:16:51.137Z,100211.58
2022-08-14T08:19:25.527Z,100208.33
2022-08-14T08:21:58.941Z,100206.73
2022-08-14T08:24:37.283Z,100200.23
2022-08-14T08:27:21.317Z,100202.50
2022-08-14T08:30:03.746Z,100193.89
2022-08-14T08:32:45.958Z,100193.20
2022-08-14T08:35:24.028Z,100189.01
2022-08-14T08:38:03.076Z,100194.55
2022-08-14T08:41:01.230Z,100193.25
2022-08-14T08:43:36.549Z,100199.69
2022-08-14T08:46:21.263Z,100192.98
2022-08-14T08:51:34.323Z,100186.80
2022-08-14T08:54:11.937Z,100180.45
2022-08-14T08:56:52.838Z,100180.35
2022-08-14T08:59:31.250Z,100169.54
2022-08-14T09:02:11.516Z,100171.41
2022-08-14T09:04:53.670Z,100160.77
2022-08-14T09:07:31.159Z,100158.52
2022-08-14T09:10:08.100Z,100156.70
2022-08-14T09:12:46.795Z,100147.30
2022-08-14T09:15:26.051Z,100141.77
2022-08-14T09:18:42.177Z,100133.06
2022-08-14T09:21:48.014Z,100132.02
2022-08-14T09:24:44.034Z,100131.09
2022-08-14T09:27:22.722Z,100135.16
2022-08-14T09:30:33.148Z,100137.45
2022-08-14T09:33:32.068Z,100133.22
2022-08-14T09:36:36.217Z,100129.14
2022-08-14T09:39:23.101Z,100132.39
2022-08-14T09:42:20.153Z,100128.91
2022-08-14T09:45:22.946Z,100125.11
2022-08-14T09:47:58.988Z,100124.89
2022-08-14T09:50:45.974Z,100116.33
2022-08-14T09:54:18.532Z,100121.64
2022-08-14T09:56:30.984Z,100120.52
2022-08-14T09:59:16.733Z,100122.35
2022-08-14T10:01:52.714Z,100122.14
2022-08-14T10:04:33.846Z,100119.24
2022-08-14T10:07:12.664Z,100114.52
2022-08-14T10:10:00.297Z,100110.52
2022-08-14T10:12:52.888Z,100105.77
2022-08-14T10:15:29.827Z,100100.30
2022-08-14T10:18:17.507Z,100097.60
2022-08-14T10:20:58.760Z,100101.06
2022-08-14T10:23:44.515Z,100098.52
2022-08-14T10:26:23.136Z,100097.96
2022-08-14T10:29:19.985Z,100094.83
2022-08-14T10:32:03.101Z,100087.44
2022-08-14T10:35:05.291Z,100086.41
2022-08-14T10:37:52.410Z,100091.36
2022-08-14T10:40:38.011Z,100089.66
2022-08-14T10:43:25.522Z,100089.23
2022-08-14T10:46:04.130Z,100089.59
2022-08-14T10:49:05.409Z,100092.38
2022-08-14T10:51:41.620Z,100090.95
2022-08-14T10:54:26.106Z,100090.59
2022-08-14T10:57:20.001Z,100095.86
2022-08-14T10:59:56.189Z,100088.91
2022-08-14T11:02:44.499Z,100086.38
2022-08-14T11:05:26.472Z,100084.54
2022-08-14T11:08:08.950Z,100085.30
2022-08-14T11:10:48.376Z,100080.73
2022-08-14T11:13:23.830Z,100078.65
2022-08-14T11:16:00.546Z,100076.09
2022-08-14T11:18:40.136Z,100077.42
2022-08-14T11:21:21.309Z,100071.75
2022-08-14T11:23:57.155Z,100069.76
2022-08-14T11:26:31.542Z,100065.79
2022-08-14T11:29:08.720Z,100059.26
2022-08-14T11:31:41.579Z,100058.31
2022-08-14T11:34:31.904Z,100045.98
2022-08-14T11:37:18.674Z,100045.42
2022-08-14T11:39:56.008Z,100039.64
2022-08-14T11:42:57.958Z,100039.71
2022-08-14T11:45:25.978Z,100038.63
2022-08-14T11:48:13.015Z,100034.80
2022-08-14T11:50:56.153Z,100028.95
2022-08-14T11:53:31.304Z,100030.90
2022-08-14T11:56:06.348Z,100028.55
2022-08-14T11:58:40.220Z,100022.21
2022-08-14T12:01:15.869Z,100024.73
2022-08-14T12:03:52.105Z,100021.92
2022-08-14T12:06:39.334Z,100011.98
2022-08-14T12:09:14.945Z,100018.33
2022-08-14T12:11:51.495Z,100016.45
2022-08-14T12:14:31.009Z,100010.30
2022-08-14T12:17:13.314Z,100008.18
2022-08-14T12:19:56.502Z,99999.15
2022-08-14T12:22:42.310Z,100000.08
2022-08-14T12:25:25.164Z,99996.23
2022-08-14T12:28:01.945Z,99993.73
2022-08-14T12:30:39.498Z,99988.85
2022-08-14T12:33:32.941Z,99992.04
2022-08-14T12:36:09.941Z,99989.61
2022-08-14T12:38:45.692Z,99990.37
2022-08-14T12:41:21.935Z,99989.08
2022-08-14T12:43:59.501Z,99985.70
2022-08-14T12:46:39.764Z,99985.21
2022-08-14T12:49:16.476Z,99995.11
2022-08-14T12:51:59.804Z,99996.56
2022-08-14T12:54:32.690Z,99990.09
2022-08-14T12:57:13.586Z,99987.70
2022-08-14T12:59:52.769Z,99983.48
2022-08-14T13:02:29.816Z,99974.20
2022-08-14T13:05:02.050Z,99978.30
2022-08-14T13:07:35.471Z,99979.83
2022-08-14T13:10:51.128Z,99980.73
2022-08-14T13:13:15.623Z,99982.73
2022-08-14T13:15:57.176Z,99976.16
2022-08-14T13:18:32.252Z,99978.95
2022-08-14T13:21:06.016Z,99984.80
2022-08-14T13:23:38.798Z,99981.89
2022-08-14T13:26:13.043Z,99972.69
2022-08-14T13:29:02.754Z,99967.99
2022-08-14T13:31:37.019Z,99960.56
2022-08-14T13:34:10.719Z,99958.24
2022-08-14T13:36:54.886Z,99954.13
2022-08-14T13:39:36.446Z,99947.73
2022-08-14T13:42:14.872Z,99946.25
2022-08-14T13:44:50.345Z,99941.83
2022-08-14T13:47:24.953Z,99939.67
2022-08-14T13:50:02.932Z,99929.23
2022-08-14T13:52:51.957Z,99929.35
2022-08-14T13:55:29.551Z,99925.69
2022-08-14T13:58:05.228Z,99923.31
2022-08-14T14:00:52.787Z,99913.50
2022-08-14T14:03:31.820Z,99910.83
2022-08-14T14:06:05.529Z,99905.16
2022-08-14T14:08:45.775Z,99904.48
2022-08-14T14:11:23.941Z,99903.31
2022-08-14T14:13:57.488Z,99901.61
2022-08-14T14:16:30.895Z,99896.73
2022-08-14T14:19:09.837Z,99900.06
2022-08-14T14:21:42.210Z,99899.35
2022-08-14T14:24:16.156Z,99892.81
2022-08-14T14:26:51.458Z,99893.94
2022-08-14T14:29:26.734Z,99881.88
2022-08-14T14:32:02.411Z,99867.92
2022-08-14T14:34:37.716Z,99867.08
2022-08-14T14:37:14.475Z,99866.98
2022-08-14T14:40:53.667Z,99869.20
2022-08-14T14:42:53.232Z,99862.95
2022-08-14T14:45:26.822Z,99857.19
2022-08-14T14:48:00.453Z,99855.17
2022-08-14T14:50:33.345Z,99856.95
2022-08-14T14:53:12.759Z,99860.96
2022-08-14T14:56:08.703Z,99865.21
2022-08-14T14:58:39.025Z,99862.57
2022-08-14T15:01:12.266Z,99861.10
2022-08-14T15:03:46.210Z,99862.90
2022-08-14T15:06:19.410Z,99853.25
2022-08-14T15:08:56.472Z,99850.59
2022-08-14T15:11:32.184Z,99847.45
2022-08-14T15:14:55.460Z,99839.61
2022-08-14T15:16:59.190Z,99840.10
2022-08-14T15:19:32.383Z,99842.95
2022-08-14T15:22:05.088Z,99844.11
2022-08-14T15:24:39.888Z,99844.80
2022-08-14T15:27:12.168Z,99846.38
2022-08-14T15:29:47.289Z,99851.94
2022-08-14T15:32:23.158Z,99848.16
2022-08-14T15:34:55.745Z,99851.94
2022-08-14T15:37:33.689Z,99850.20
2022-08-14T15:40:16.289Z,99851.73
2022-08-14T15:42:54.679Z,99848.81
2022-08-14T15:45:27.803Z,99852.39
2022-08-14T15:48:00.552Z,99846.70
2022-08-14T15:50:32.313Z,99847.87
2022-08-14T15:53:04.564Z,99847.99
2022-08-14T15:55:34.764Z,99840.53
2022-08-14T15:58:11.404Z,99839.29
2022-08-14T16:01:04.173Z,99833.33
2022-08-14T16:03:42.290Z,99827.46
2022-08-14T16:06:18.820Z,99828.84
2022-08-14T16:08:58.900Z,99827.45
2022-08-14T16:11:32.776Z,99828.28
2022-08-14T16:14:06.901Z,99824.40
2022-08-14T16:16:51.475Z,99822.06
2022-08-14T16:19:32.925Z,99825.27
2022-08-14T16:22:58.322Z,99825.58
2022-08-14T16:25:15.578Z,99825.50
2022-08-14T16:27:51.089Z,99821.48
2022-08-14T16:30:27.596Z,99823.43
2022-08-14T16:33:01.321Z,99817.49
2022-08-14T16:35:43.409Z,99821.77
2022-08-14T16:38:46.223Z,99825.60
2022-08-14T16:41:30.136Z,99833.30
2022-08-14T16:44:05.834Z,99835.87
2022-08-14T16:46:46.496Z,99829.60
2022-08-14T16:49:20.012Z,99826.30
2022-08-14T16:51:52.870Z,99826.73
2022-08-14T16:54:34.791Z,99816.98
2022-08-14T16:57:22.480Z,99818.80
2022-08-14T16:59:57.687Z,99816.69
2022-08-14T17:02:41.794Z,99820.45
2022-08-14T17:05:21.825Z,99819.31
2022-08-14T17:08:41.735Z,99821.88
2022-08-14T17:11:10.974Z,99818.33
2022-08-14T17:13:57.831Z,99824.23
2022-08-14T17:16:37.467Z,99827.30
2022-08-14T17:19:14.212Z,99832.76
2022-08-14T17:21:52.266Z,99833.84
2022-08-14T17:24:57.701Z,99829.55
2022-08-14T17:27:22.186Z,99824.31
2022-08-14T17:29:58.798Z,99820.54
2022-08-14T17:32:55.825Z,99818.65
2022-08-14T17:35:57.781Z,99817.86
2022-08-14T17:38:38.193Z,99820.92
2022-08-14T17:41:23.519Z,99821.27
2022-08-14T17:43:56.556Z,99817.46
2022-08-14T17:46:43.557Z,99815.27
2022-08-14T17:49:18.300Z,99814.72
2022-08-14T17:52:03.774Z,99819.41
2022-08-14T17:54:44.540Z,99827.10
2022-08-14T17:57:18.528Z,99831.30
2022-08-14T17:59:51.442Z,99837.00
2022-08-14T18:02:31.440Z,99839.54
2022-08-14T18:05:03.622Z,99839.58
2022-08-14T18:07:59.341Z,99837.52
2022-08-14T18:10:55.306Z,99842.32
2022-08-14T18:13:51.033Z,99844.71
2022-08-14T18:16:20.413Z,99849.88
2022-08-14T18:18:54.864Z,99852.67
2022-08-14T18:21:41.988Z,99848.48
2022-08-14T18:24:29.716Z,99843.52
2022-08-14T18:27:09.363Z,99848.16
2022-08-14T18:29:55.358Z,99851.96
2022-08-14T18:32:47.681Z,99855.61
2022-08-14T18:35:45.887Z,99851.02
2022-08-14T18:38:55.120Z,99853.02
2022-08-14T18:41:37.154Z,99852.32
2022-08-14T18:44:11.347Z,99854.73
2022-08-14T18:47:18.433Z,99857.40
2022-08-14T18:50:26.945Z,99859.02
2022-08-14T18:53:10.695Z,99861.40
2022-08-14T18:55:53.025Z,99858.89
2022-08-14T18:58:31.346Z,99862.86
2022-08-14T19:01:06.595Z,99865.85
2022-08-14T19:03:56.196Z,99866.48
2022-08-14T19:06:56.267Z,99865.78
2022-08-14T19:09:57.978Z,99863.19
2022-08-14T19:12:58.155Z,99867.08
2022-08-14T19:15:34.345Z,99859.17
2022-08-14T19:18:28.056Z,99859.10
2022-08-14T19:21:02.478Z,99857.09
2022-08-14T19:24:27.577Z,99858.46
2022-08-14T19:27:19.537Z,99856.70
2022-08-14T19:30:25.275Z,99856.08
2022-08-14T19:33:03.734Z,99852.48
2022-08-14T19:35:59.829Z,99854.80
2022-08-14T19:38:54.939Z,99855.70
2022-08-14T19:41:33.792Z,99852.89
2022-08-14T19:44:12.052Z,99850.48
2022-08-14T19:47:02.841Z,99843.98
2022-08-14T19:50:09.075Z,99839.30
2022-08-14T19:52:39.686Z,99837.23
2022-08-14T19:55:19.396Z,99837.73
2022-08-14T19:57:58.814Z,99833.58
2022-08-14T20:00:31.954Z,99837.23
2022-08-14T20:03:10.533Z,99833.67
2022-08-14T20:05:45.501Z,99837.99
2022-08-14T20:10:58.535Z,99831.13
2022-08-14T20:12:02.327Z,99831.57
2022-08-14T20:14:28.251Z,99833.61
2022-08-14T20:17:06.064Z,99837.27
2022-08-14T20:19:41.676Z,99832.65
2022-08-14T20:22:36.201Z,99831.89
2022-08-14T20:25:23.156Z,99824.71
2022-08-14T20:27:59.243Z,99819.77
2022-08-14T20:30:33.551Z,99820.61
2022-08-14T20:33:11.021Z,99818.77
2022-08-14T20:35:51.507Z,99811.46
2022-08-14T20:38:32.421Z,99808.25
2022-08-14T20:41:12.314Z,99805.63
2022-08-14T20:44:06.463Z,99807.89
2022-08-14T20:46:42.372Z,99801.83
2022-08-14T20:49:18.861Z,99801.20
2022-08-14T20:51:59.565Z,99805.83
2022-08-14T20:54:36.557Z,99804.26
2022-08-14T20:57:22.453Z,99804.59
2022-08-14T20:59:56.642Z,99803.38
2022-08-14T21:02:50.058Z,99802.27
2022-08-14T21:05:33.851Z,99804.02
2022-08-14T21:08:22.076Z,99807.67
2022-08-14T21:10:56.745Z,99807.40
2022-08-14T21:14:19.893Z,99801.59
2022-08-14T21:16:33.750Z,99802.23
2022-08-14T21:19:08.824Z,99804.45
2022-08-14T21:21:42.438Z,99801.13
2022-08-14T21:24:39.254Z,99800.61
2022-08-14T21:27:12.289Z,99795.59
2022-08-14T21:29:53.853Z,99803.23
2022-08-14T21:32:47.057Z,99806.96
2022-08-14T21:35:29.647Z,99810.30
2022-08-14T21:38:02.798Z,99814.67
2022-08-14T21:40:41.789Z,99815.92
2022-08-14T21:43:17.792Z,99816.46
2022-08-14T21:45:57.635Z,99816.06
2022-08-14T21:48:34.017Z,99821.76
2022-08-14T21:51:55.002Z,99823.58
2022-08-14T21:54:01.344Z,99820.64
2022-08-14T21:56:41.020Z,99823.84
2022-08-14T21:59:32.210Z,99821.93
2022-08-14T22:02:08.994Z,99828.77
2022-08-14T22:05:03.528Z,99827.58
2022-08-14T22:07:36.779Z,99828.25
2022-08-14T22:10:14.411Z,99828.90
2022-08-14T22:13:00.756Z,99823.77
2022-08-14T22:15:35.535Z,99817.10
2022-08-14T22:18:09.957Z,99812.83
2022-08-14T22:20:56.631Z,99807.74
2022-08-14T22:23:28.566Z,99810.52
2022-08-14T22:26:00.360Z,99807.95
2022-08-14T22:28:35.362Z,99807.29
2022-08-14T22:31:11.179Z,99808.50
2022-08-14T22:33:57.776Z,99802.60
2022-08-14T22:36:48.797Z,99795.73
2022-08-14T22:40:17.666Z,99788.47
2022-08-14T22:42:20.901Z,99788.03
2022-08-14T22:44:56.657Z,99790.13
2022-08-14T22:47:40.205Z,99789.67
2022-08-14T22:50:31.938Z,99787.20
2022-08-14T22:53:07.272Z,99781.52
2022-08-14T22:55:42.729Z,99780.70
2022-08-14T22:58:17.275Z,99778.27
2022-08-14T23:00:50.939Z,99780.90
2022-08-14T23:03:22.800Z,99777.52
2022-08-14T23:05:54.794Z,99777.71
2022-08-14T23:08:58.573Z,99780.06
2022-08-14T23:11:18.239Z,99782.81
2022-08-14T23:13:50.723Z,99785.81
2022-08-14T23:16:20.963Z,99783.17
2022-08-14T23:18:54.637Z,99786.18
2022-08-14T23:21:28.661Z,99789.08
2022-08-14T23:24:03.060Z,99785.40
2022-08-14T23:26:48.181Z,99780.04
2022-08-14T23:29:22.357Z,99778.77
2022-08-14T23:31:56.872Z,99767.56
2022-08-14T23:34:30.985Z,99763.42
2022-08-14T23:37:03.830Z,99759.10
2022-08-14T23:39:36.524Z,99760.19
2022-08-14T23:42:13.428Z,99756.36
2022-08-14T23:44:49.697Z,99756.98
2022-08-14T23:47:26.491Z,99759.88
2022-08-14T23:50:03.651Z,99754.89
2022-08-14T23:53:06.244Z,99754.60
2022-08-14T23:55:34.803Z,99753.55
2022-08-14T23:58:07.798Z,99754.98
